sensor_id;sensor_type;location;lat;lon;timestamp;P1;durP1;ratioP1;P2;durP2;ratioP2
24157;SDS011;12316;50.904;4.200;2022-12-29T00:01:35;2.60;;;2.30;;
24157;SDS011;12316;50.904;4.200;2022-12-29T00:04:02;2.72;;;2.17;;
24157;SDS011;12316;50.904;4.200;2022-12-29T00:06:28;5.60;;;2.03;;
24157;SDS011;12316;50.904;4.200;2022-12-29T00:08:54;2.80;;;1.90;;
24157;SDS011;12316;50.904;4.200;2022-12-29T00:11:20;3.42;;;1.73;;
24157;SDS011;12316;50.904;4.200;2022-12-29T00:13:49;3.78;;;1.90;;
24157;SDS011;12316;50.904;4.200;2022-12-29T00:16:34;2.05;;;1.48;;
24157;SDS011;12316;50.904;4.200;2022-12-29T00:19:00;2.67;;;1.45;;
24157;SDS011;12316;50.904;4.200;2022-12-29T00:21:26;2.92;;;1.60;;
24157;SDS011;12316;50.904;4.200;2022-12-29T00:24:18;2.67;;;1.30;;
24157;SDS011;12316;50.904;4.200;2022-12-29T00:29:41;2.70;;;1.30;;
24157;SDS011;12316;50.904;4.200;2022-12-29T00:32:25;4.82;;;1.23;;
24157;SDS011;12316;50.904;4.200;2022-12-29T00:35:10;2.70;;;1.17;;
24157;SDS011;12316;50.904;4.200;2022-12-29T00:37:42;3.38;;;1.02;;
24157;SDS011;12316;50.904;4.200;2022-12-29T00:40:28;2.42;;;1.20;;
24157;SDS011;12316;50.904;4.200;2022-12-29T00:43:13;3.20;;;1.10;;
24157;SDS011;12316;50.904;4.200;2022-12-29T00:45:57;5.93;;;1.38;;
24157;SDS011;12316;50.904;4.200;2022-12-29T00:48:22;3.03;;;1.20;;
24157;SDS011;12316;50.904;4.200;2022-12-29T00:51:07;4.28;;;1.10;;
24157;SDS011;12316;50.904;4.200;2022-12-29T00:53:33;5.07;;;1.23;;
24157;SDS011;12316;50.904;4.200;2022-12-29T00:55:58;7.15;;;1.23;;
24157;SDS011;12316;50.904;4.200;2022-12-29T00:58:28;3.83;;;1.35;;
24157;SDS011;12316;50.904;4.200;2022-12-29T01:01:04;5.13;;;1.20;;
24157;SDS011;12316;50.904;4.200;2022-12-29T01:03:31;3.92;;;1.30;;
24157;SDS011;12316;50.904;4.200;2022-12-29T01:06:02;5.13;;;1.38;;
24157;SDS011;12316;50.904;4.200;2022-12-29T01:08:29;4.30;;;1.17;;
24157;SDS011;12316;50.904;4.200;2022-12-29T01:11:02;7.47;;;1.58;;
24157;SDS011;12316;50.904;4.200;2022-12-29T01:13:29;5.63;;;1.42;;
24157;SDS011;12316;50.904;4.200;2022-12-29T01:15:55;6.40;;;1.30;;
24157;SDS011;12316;50.904;4.200;2022-12-29T01:18:21;4.75;;;1.40;;
24157;SDS011;12316;50.904;4.200;2022-12-29T01:20:47;4.88;;;1.00;;
24157;SDS011;12316;50.904;4.200;2022-12-29T01:23:13;6.07;;;1.10;;
24157;SDS011;12316;50.904;4.200;2022-12-29T01:25:39;2.45;;;0.95;;
24157;SDS011;12316;50.904;4.200;2022-12-29T01:28:05;3.15;;;0.93;;
24157;SDS011;12316;50.904;4.200;2022-12-29T01:30:33;5.00;;;1.17;;
24157;SDS011;12316;50.904;4.200;2022-12-29T01:32:59;3.85;;;1.20;;
24157;SDS011;12316;50.904;4.200;2022-12-29T01:35:25;4.35;;;1.33;;
24157;SDS011;12316;50.904;4.200;2022-12-29T01:37:51;3.92;;;1.20;;
24157;SDS011;12316;50.904;4.200;2022-12-29T01:40:17;5.15;;;1.45;;
24157;SDS011;12316;50.904;4.200;2022-12-29T01:42:43;2.92;;;1.20;;
24157;SDS011;12316;50.904;4.200;2022-12-29T01:45:10;5.35;;;1.23;;
24157;SDS011;12316;50.904;4.200;2022-12-29T01:47:44;2.47;;;0.93;;
24157;SDS011;12316;50.904;4.200;2022-12-29T01:50:17;2.35;;;1.10;;
24157;SDS011;12316;50.904;4.200;2022-12-29T01:53:29;3.50;;;1.27;;
24157;SDS011;12316;50.904;4.200;2022-12-29T01:55:53;2.20;;;0.95;;
24157;SDS011;12316;50.904;4.200;2022-12-29T01:58:22;5.22;;;1.10;;
24157;SDS011;12316;50.904;4.200;2022-12-29T02:00:51;4.18;;;1.10;;
24157;SDS011;12316;50.904;4.200;2022-12-29T02:03:17;3.67;;;1.40;;
24157;SDS011;12316;50.904;4.200;2022-12-29T02:05:47;3.03;;;0.90;;
24157;SDS011;12316;50.904;4.200;2022-12-29T02:08:31;3.00;;;1.02;;
24157;SDS011;12316;50.904;4.200;2022-12-29T02:10:58;4.35;;;1.13;;
24157;SDS011;12316;50.904;4.200;2022-12-29T02:13:25;1.63;;;0.63;;
24157;SDS011;12316;50.904;4.200;2022-12-29T02:21:19;5.22;;;0.77;;
24157;SDS011;12316;50.904;4.200;2022-12-29T02:35:14;4.40;;;0.80;;
24157;SDS011;12316;50.904;4.200;2022-12-29T02:40:39;4.40;;;0.70;;
24157;SDS011;12316;50.904;4.200;2022-12-29T02:45:57;5.05;;;0.77;;
24157;SDS011;12316;50.904;4.200;2022-12-29T02:51:09;5.20;;;0.70;;
24157;SDS011;12316;50.904;4.200;2022-12-29T02:53:40;4.32;;;1.00;;
24157;SDS011;12316;50.904;4.200;2022-12-29T02:56:24;2.80;;;0.60;;
24157;SDS011;12316;50.904;4.200;2022-12-29T02:58:50;3.03;;;0.70;;
24157;SDS011;12316;50.904;4.200;2022-12-29T03:03:58;2.55;;;0.75;;
24157;SDS011;12316;50.904;4.200;2022-12-29T03:12:12;4.05;;;0.80;;
24157;SDS011;12316;50.904;4.200;2022-12-29T03:15:10;5.22;;;0.60;;
24157;SDS011;12316;50.904;4.200;2022-12-29T03:18:03;4.82;;;0.88;;
24157;SDS011;12316;50.904;4.200;2022-12-29T03:20:38;9.45;;;1.08;;
24157;SDS011;12316;50.904;4.200;2022-12-29T03:23:09;6.97;;;1.00;;
24157;SDS011;12316;50.904;4.200;2022-12-29T03:25:39;7.15;;;1.08;;
24157;SDS011;12316;50.904;4.200;2022-12-29T03:28:09;6.25;;;1.15;;
24157;SDS011;12316;50.904;4.200;2022-12-29T03:30:39;5.30;;;0.90;;
24157;SDS011;12316;50.904;4.200;2022-12-29T03:33:09;4.85;;;0.88;;
24157;SDS011;12316;50.904;4.200;2022-12-29T03:35:38;5.55;;;1.02;;
24157;SDS011;12316;50.904;4.200;2022-12-29T03:38:12;6.03;;;1.35;;
24157;SDS011;12316;50.904;4.200;2022-12-29T03:40:41;6.32;;;0.80;;
24157;SDS011;12316;50.904;4.200;2022-12-29T03:43:10;4.95;;;1.00;;
24157;SDS011;12316;50.904;4.200;2022-12-29T03:45:37;7.28;;;0.77;;
24157;SDS011;12316;50.904;4.200;2022-12-29T03:48:05;6.13;;;1.08;;
24157;SDS011;12316;50.904;4.200;2022-12-29T03:50:30;3.90;;;0.90;;
24157;SDS011;12316;50.904;4.200;2022-12-29T03:52:56;4.28;;;0.70;;
24157;SDS011;12316;50.904;4.200;2022-12-29T03:55:22;2.78;;;0.77;;
24157;SDS011;12316;50.904;4.200;2022-12-29T03:57:47;3.17;;;0.90;;
24157;SDS011;12316;50.904;4.200;2022-12-29T04:00:13;3.53;;;0.80;;
24157;SDS011;12316;50.904;4.200;2022-12-29T04:02:39;4.68;;;0.80;;
24157;SDS011;12316;50.904;4.200;2022-12-29T04:05:05;3.47;;;0.77;;
24157;SDS011;12316;50.904;4.200;2022-12-29T04:07:31;2.88;;;0.65;;
24157;SDS011;12316;50.904;4.200;2022-12-29T04:09:56;2.17;;;0.70;;
24157;SDS011;12316;50.904;4.200;2022-12-29T04:12:22;5.88;;;0.95;;
24157;SDS011;12316;50.904;4.200;2022-12-29T04:14:48;4.90;;;0.70;;
24157;SDS011;12316;50.904;4.200;2022-12-29T04:17:13;7.47;;;1.00;;
24157;SDS011;12316;50.904;4.200;2022-12-29T04:19:39;7.85;;;1.30;;
24157;SDS011;12316;50.904;4.200;2022-12-29T04:22:05;4.40;;;1.05;;
24157;SDS011;12316;50.904;4.200;2022-12-29T04:24:30;4.22;;;0.90;;
24157;SDS011;12316;50.904;4.200;2022-12-29T04:26:56;5.05;;;0.60;;
24157;SDS011;12316;50.904;4.200;2022-12-29T04:29:22;3.22;;;0.70;;
24157;SDS011;12316;50.904;4.200;2022-12-29T04:31:47;4.10;;;1.02;;
24157;SDS011;12316;50.904;4.200;2022-12-29T04:34:13;3.72;;;0.70;;
24157;SDS011;12316;50.904;4.200;2022-12-29T04:36:40;5.07;;;0.90;;
24157;SDS011;12316;50.904;4.200;2022-12-29T04:39:05;4.00;;;0.90;;
24157;SDS011;12316;50.904;4.200;2022-12-29T04:41:31;4.93;;;0.90;;
24157;SDS011;12316;50.904;4.200;2022-12-29T04:43:57;4.13;;;0.90;;
24157;SDS011;12316;50.904;4.200;2022-12-29T04:46:23;4.90;;;0.98;;
24157;SDS011;12316;50.904;4.200;2022-12-29T04:48:49;4.30;;;0.88;;
24157;SDS011;12316;50.904;4.200;2022-12-29T04:51:15;6.68;;;1.00;;
24157;SDS011;12316;50.904;4.200;2022-12-29T04:53:40;4.50;;;0.90;;
24157;SDS011;12316;50.904;4.200;2022-12-29T04:56:06;6.30;;;1.05;;
24157;SDS011;12316;50.904;4.200;2022-12-29T04:58:34;4.75;;;1.00;;
24157;SDS011;12316;50.904;4.200;2022-12-29T05:01:01;3.47;;;0.70;;
24157;SDS011;12316;50.904;4.200;2022-12-29T05:03:27;4.80;;;1.10;;
24157;SDS011;12316;50.904;4.200;2022-12-29T05:05:53;4.60;;;1.10;;
24157;SDS011;12316;50.904;4.200;2022-12-29T05:08:20;5.57;;;1.02;;
24157;SDS011;12316;50.904;4.200;2022-12-29T05:10:47;6.85;;;0.98;;
24157;SDS011;12316;50.904;4.200;2022-12-29T05:13:12;4.90;;;1.02;;
24157;SDS011;12316;50.904;4.200;2022-12-29T05:15:38;5.15;;;1.02;;
24157;SDS011;12316;50.904;4.200;2022-12-29T05:18:03;5.00;;;0.93;;
24157;SDS011;12316;50.904;4.200;2022-12-29T05:20:29;4.63;;;1.02;;
24157;SDS011;12316;50.904;4.200;2022-12-29T05:22:55;6.03;;;1.20;;
24157;SDS011;12316;50.904;4.200;2022-12-29T05:25:20;5.63;;;1.08;;
24157;SDS011;12316;50.904;4.200;2022-12-29T05:27:46;9.18;;;1.42;;
24157;SDS011;12316;50.904;4.200;2022-12-29T05:30:12;6.43;;;1.13;;
24157;SDS011;12316;50.904;4.200;2022-12-29T05:32:37;8.10;;;1.38;;
24157;SDS011;12316;50.904;4.200;2022-12-29T05:35:03;7.22;;;1.20;;
24157;SDS011;12316;50.904;4.200;2022-12-29T05:37:29;7.07;;;1.17;;
24157;SDS011;12316;50.904;4.200;2022-12-29T05:39:55;9.10;;;1.35;;
24157;SDS011;12316;50.904;4.200;2022-12-29T05:42:20;6.90;;;1.30;;
24157;SDS011;12316;50.904;4.200;2022-12-29T05:44:46;6.95;;;1.17;;
24157;SDS011;12316;50.904;4.200;2022-12-29T05:47:14;8.30;;;1.40;;
24157;SDS011;12316;50.904;4.200;2022-12-29T05:49:41;6.20;;;1.30;;
24157;SDS011;12316;50.904;4.200;2022-12-29T05:52:07;9.32;;;1.20;;
24157;SDS011;12316;50.904;4.200;2022-12-29T05:54:32;9.85;;;1.58;;
24157;SDS011;12316;50.904;4.200;2022-12-29T05:56:58;8.85;;;1.48;;
24157;SDS011;12316;50.904;4.200;2022-12-29T05:59:24;7.18;;;1.23;;
24157;SDS011;12316;50.904;4.200;2022-12-29T06:01:49;6.75;;;1.30;;
24157;SDS011;12316;50.904;4.200;2022-12-29T06:04:15;9.00;;;1.63;;
24157;SDS011;12316;50.904;4.200;2022-12-29T06:06:41;11.43;;;1.40;;
24157;SDS011;12316;50.904;4.200;2022-12-29T06:09:08;7.95;;;1.67;;
24157;SDS011;12316;50.904;4.200;2022-12-29T06:11:34;8.63;;;1.52;;
24157;SDS011;12316;50.904;4.200;2022-12-29T06:14:00;12.80;;;1.80;;
24157;SDS011;12316;50.904;4.200;2022-12-29T06:16:26;9.32;;;1.70;;
24157;SDS011;12316;50.904;4.200;2022-12-29T06:18:51;7.47;;;1.65;;
24157;SDS011;12316;50.904;4.200;2022-12-29T06:21:17;8.73;;;1.50;;
24157;SDS011;12316;50.904;4.200;2022-12-29T06:23:43;11.45;;;1.83;;
24157;SDS011;12316;50.904;4.200;2022-12-29T06:26:08;10.10;;;1.50;;
24157;SDS011;12316;50.904;4.200;2022-12-29T06:28:34;9.10;;;1.73;;
24157;SDS011;12316;50.904;4.200;2022-12-29T06:30:59;9.60;;;1.98;;
24157;SDS011;12316;50.904;4.200;2022-12-29T06:33:27;8.95;;;1.73;;
24157;SDS011;12316;50.904;4.200;2022-12-29T06:35:53;8.80;;;1.52;;
24157;SDS011;12316;50.904;4.200;2022-12-29T06:38:19;7.35;;;1.42;;
24157;SDS011;12316;50.904;4.200;2022-12-29T06:40:45;9.95;;;1.30;;
24157;SDS011;12316;50.904;4.200;2022-12-29T06:43:10;10.88;;;1.80;;
24157;SDS011;12316;50.904;4.200;2022-12-29T06:45:37;9.68;;;1.80;;
24157;SDS011;12316;50.904;4.200;2022-12-29T06:48:05;12.32;;;2.47;;
24157;SDS011;12316;50.904;4.200;2022-12-29T06:50:31;10.68;;;1.63;;
24157;SDS011;12316;50.904;4.200;2022-12-29T06:52:57;9.38;;;1.80;;
24157;SDS011;12316;50.904;4.200;2022-12-29T06:55:22;9.02;;;1.75;;
24157;SDS011;12316;50.904;4.200;2022-12-29T06:57:48;8.82;;;1.80;;
24157;SDS011;12316;50.904;4.200;2022-12-29T07:00:14;10.27;;;1.98;;
24157;SDS011;12316;50.904;4.200;2022-12-29T07:02:39;11.30;;;2.13;;
24157;SDS011;12316;50.904;4.200;2022-12-29T07:05:05;9.25;;;2.00;;
24157;SDS011;12316;50.904;4.200;2022-12-29T07:07:32;7.88;;;1.52;;
24157;SDS011;12316;50.904;4.200;2022-12-29T07:09:58;9.20;;;1.80;;
24157;SDS011;12316;50.904;4.200;2022-12-29T07:12:23;11.63;;;1.73;;
24157;SDS011;12316;50.904;4.200;2022-12-29T07:14:49;10.13;;;2.08;;
24157;SDS011;12316;50.904;4.200;2022-12-29T07:17:15;6.88;;;1.88;;
24157;SDS011;12316;50.904;4.200;2022-12-29T07:19:41;10.00;;;1.60;;
24157;SDS011;12316;50.904;4.200;2022-12-29T07:22:07;11.43;;;1.80;;
24157;SDS011;12316;50.904;4.200;2022-12-29T07:24:34;10.32;;;1.95;;
24157;SDS011;12316;50.904;4.200;2022-12-29T07:27:00;7.15;;;1.42;;
24157;SDS011;12316;50.904;4.200;2022-12-29T07:29:26;11.38;;;1.67;;
24157;SDS011;12316;50.904;4.200;2022-12-29T07:31:52;11.70;;;1.60;;
24157;SDS011;12316;50.904;4.200;2022-12-29T07:34:17;7.72;;;1.63;;
24157;SDS011;12316;50.904;4.200;2022-12-29T07:36:43;12.50;;;1.80;;
24157;SDS011;12316;50.904;4.200;2022-12-29T07:39:09;9.15;;;1.60;;
24157;SDS011;12316;50.904;4.200;2022-12-29T07:41:34;8.50;;;1.80;;
24157;SDS011;12316;50.904;4.200;2022-12-29T07:44:00;11.90;;;1.77;;
24157;SDS011;12316;50.904;4.200;2022-12-29T07:46:25;12.15;;;1.77;;
24157;SDS011;12316;50.904;4.200;2022-12-29T07:48:51;9.50;;;2.22;;
24157;SDS011;12316;50.904;4.200;2022-12-29T07:51:17;10.23;;;1.60;;
24157;SDS011;12316;50.904;4.200;2022-12-29T07:53:43;9.27;;;1.50;;
24157;SDS011;12316;50.904;4.200;2022-12-29T07:56:08;10.15;;;2.25;;
24157;SDS011;12316;50.904;4.200;2022-12-29T07:58:34;10.20;;;2.13;;
24157;SDS011;12316;50.904;4.200;2022-12-29T08:00:59;9.77;;;1.50;;
24157;SDS011;12316;50.904;4.200;2022-12-29T08:03:25;11.00;;;1.85;;
24157;SDS011;12316;50.904;4.200;2022-12-29T08:05:51;8.65;;;1.75;;
24157;SDS011;12316;50.904;4.200;2022-12-29T08:08:17;9.23;;;1.83;;
24157;SDS011;12316;50.904;4.200;2022-12-29T08:10:42;14.82;;;1.90;;
24157;SDS011;12316;50.904;4.200;2022-12-29T08:13:08;9.07;;;1.80;;
24157;SDS011;12316;50.904;4.200;2022-12-29T08:15:34;12.35;;;2.10;;
24157;SDS011;12316;50.904;4.200;2022-12-29T08:18:00;11.20;;;1.70;;
24157;SDS011;12316;50.904;4.200;2022-12-29T08:20:26;7.93;;;1.65;;
24157;SDS011;12316;50.904;4.200;2022-12-29T08:22:51;12.95;;;2.10;;
24157;SDS011;12316;50.904;4.200;2022-12-29T08:25:17;8.55;;;1.88;;
24157;SDS011;12316;50.904;4.200;2022-12-29T08:27:44;9.40;;;1.65;;
24157;SDS011;12316;50.904;4.200;2022-12-29T08:30:10;12.70;;;1.95;;
24157;SDS011;12316;50.904;4.200;2022-12-29T08:32:36;11.40;;;1.73;;
24157;SDS011;12316;50.904;4.200;2022-12-29T08:35:01;8.95;;;2.00;;
24157;SDS011;12316;50.904;4.200;2022-12-29T08:37:27;9.75;;;1.80;;
24157;SDS011;12316;50.904;4.200;2022-12-29T08:39:53;9.55;;;1.98;;
24157;SDS011;12316;50.904;4.200;2022-12-29T08:42:18;7.07;;;1.58;;
24157;SDS011;12316;50.904;4.200;2022-12-29T08:44:44;7.30;;;1.80;;
24157;SDS011;12316;50.904;4.200;2022-12-29T08:47:10;13.95;;;2.30;;
24157;SDS011;12316;50.904;4.200;2022-12-29T08:49:36;8.88;;;2.03;;
24157;SDS011;12316;50.904;4.200;2022-12-29T08:52:03;9.52;;;1.90;;
24157;SDS011;12316;50.904;4.200;2022-12-29T08:54:29;13.75;;;2.20;;
24157;SDS011;12316;50.904;4.200;2022-12-29T08:56:54;12.73;;;1.80;;
24157;SDS011;12316;50.904;4.200;2022-12-29T08:59:20;8.88;;;2.10;;
24157;SDS011;12316;50.904;4.200;2022-12-29T09:01:46;15.60;;;2.10;;
24157;SDS011;12316;50.904;4.200;2022-12-29T09:04:11;11.85;;;1.90;;
24157;SDS011;12316;50.904;4.200;2022-12-29T09:06:37;10.88;;;1.88;;
24157;SDS011;12316;50.904;4.200;2022-12-29T09:09:03;11.75;;;2.05;;
24157;SDS011;12316;50.904;4.200;2022-12-29T09:11:28;13.15;;;2.22;;
24157;SDS011;12316;50.904;4.200;2022-12-29T09:13:54;12.27;;;2.45;;
24157;SDS011;12316;50.904;4.200;2022-12-29T09:16:20;12.85;;;2.17;;
24157;SDS011;12316;50.904;4.200;2022-12-29T09:18:48;10.55;;;1.70;;
24157;SDS011;12316;50.904;4.200;2022-12-29T09:21:14;9.27;;;2.10;;
24157;SDS011;12316;50.904;4.200;2022-12-29T09:23:39;9.88;;;2.08;;
24157;SDS011;12316;50.904;4.200;2022-12-29T09:26:06;16.05;;;2.70;;
24157;SDS011;12316;50.904;4.200;2022-12-29T09:28:33;12.02;;;2.05;;
24157;SDS011;12316;50.904;4.200;2022-12-29T09:30:59;12.98;;;2.30;;
24157;SDS011;12316;50.904;4.200;2022-12-29T09:33:25;13.82;;;2.22;;
24157;SDS011;12316;50.904;4.200;2022-12-29T09:35:55;9.65;;;1.77;;
24157;SDS011;12316;50.904;4.200;2022-12-29T09:38:22;12.63;;;2.20;;
24157;SDS011;12316;50.904;4.200;2022-12-29T09:40:50;15.27;;;2.72;;
24157;SDS011;12316;50.904;4.200;2022-12-29T09:48:54;14.85;;;2.70;;
24157;SDS011;12316;50.904;4.200;2022-12-29T09:51:43;13.27;;;2.28;;
24157;SDS011;12316;50.904;4.200;2022-12-29T09:56:56;13.20;;;2.28;;
24157;SDS011;12316;50.904;4.200;2022-12-29T09:59:24;12.38;;;2.35;;
24157;SDS011;12316;50.904;4.200;2022-12-29T10:02:16;13.57;;;2.20;;
24157;SDS011;12316;50.904;4.200;2022-12-29T10:04:54;12.98;;;2.50;;
24157;SDS011;12316;50.904;4.200;2022-12-29T10:07:25;14.85;;;2.78;;
24157;SDS011;12316;50.904;4.200;2022-12-29T10:12:51;15.05;;;2.22;;
24157;SDS011;12316;50.904;4.200;2022-12-29T10:15:34;14.73;;;2.15;;
24157;SDS011;12316;50.904;4.200;2022-12-29T10:21:25;14.48;;;2.38;;
24157;SDS011;12316;50.904;4.200;2022-12-29T10:23:53;14.00;;;2.17;;
24157;SDS011;12316;50.904;4.200;2022-12-29T10:26:21;12.85;;;2.05;;
24157;SDS011;12316;50.904;4.200;2022-12-29T10:28:56;16.98;;;2.72;;
24157;SDS011;12316;50.904;4.200;2022-12-29T10:31:43;10.60;;;2.10;;
24157;SDS011;12316;50.904;4.200;2022-12-29T10:34:21;15.13;;;2.35;;
24157;SDS011;12316;50.904;4.200;2022-12-29T10:36:51;14.75;;;2.60;;
24157;SDS011;12316;50.904;4.200;2022-12-29T10:39:31;14.90;;;2.20;;
24157;SDS011;12316;50.904;4.200;2022-12-29T10:44:28;12.00;;;2.20;;
24157;SDS011;12316;50.904;4.200;2022-12-29T10:46:59;13.52;;;2.20;;
24157;SDS011;12316;50.904;4.200;2022-12-29T10:49:30;18.02;;;2.40;;
24157;SDS011;12316;50.904;4.200;2022-12-29T10:51:58;11.48;;;2.30;;
24157;SDS011;12316;50.904;4.200;2022-12-29T10:57:05;14.65;;;2.67;;
24157;SDS011;12316;50.904;4.200;2022-12-29T10:59:38;11.52;;;2.65;;
24157;SDS011;12316;50.904;4.200;2022-12-29T11:04:51;15.18;;;2.92;;
24157;SDS011;12316;50.904;4.200;2022-12-29T11:07:24;12.90;;;3.00;;
24157;SDS011;12316;50.904;4.200;2022-12-29T11:09:51;10.90;;;2.25;;
24157;SDS011;12316;50.904;4.200;2022-12-29T11:12:38;13.02;;;2.15;;
24157;SDS011;12316;50.904;4.200;2022-12-29T11:17:44;13.77;;;2.50;;
24157;SDS011;12316;50.904;4.200;2022-12-29T11:20:31;20.45;;;2.67;;
24157;SDS011;12316;50.904;4.200;2022-12-29T11:23:00;11.75;;;2.33;;
24157;SDS011;12316;50.904;4.200;2022-12-29T11:25:27;14.80;;;2.15;;
24157;SDS011;12316;50.904;4.200;2022-12-29T11:28:03;14.10;;;2.55;;
24157;SDS011;12316;50.904;4.200;2022-12-29T11:30:40;12.63;;;2.00;;
24157;SDS011;12316;50.904;4.200;2022-12-29T11:33:05;21.17;;;3.10;;
24157;SDS011;12316;50.904;4.200;2022-12-29T11:38:03;7.22;;;1.80;;
24157;SDS011;12316;50.904;4.200;2022-12-29T11:40:30;17.13;;;2.63;;
24157;SDS011;12316;50.904;4.200;2022-12-29T11:42:57;14.63;;;2.63;;
24157;SDS011;12316;50.904;4.200;2022-12-29T11:45:29;13.77;;;2.90;;
24157;SDS011;12316;50.904;4.200;2022-12-29T11:48:13;9.75;;;1.88;;
24157;SDS011;12316;50.904;4.200;2022-12-29T11:50:42;11.23;;;2.10;;
24157;SDS011;12316;50.904;4.200;2022-12-29T11:53:36;17.27;;;2.70;;
24157;SDS011;12316;50.904;4.200;2022-12-29T11:56:20;12.70;;;2.10;;
24157;SDS011;12316;50.904;4.200;2022-12-29T11:58:57;14.38;;;2.38;;
24157;SDS011;12316;50.904;4.200;2022-12-29T12:01:33;12.82;;;2.50;;
24157;SDS011;12316;50.904;4.200;2022-12-29T12:06:29;17.98;;;2.92;;
24157;SDS011;12316;50.904;4.200;2022-12-29T12:09:02;9.40;;;2.00;;
24157;SDS011;12316;50.904;4.200;2022-12-29T12:11:37;9.75;;;2.25;;
24157;SDS011;12316;50.904;4.200;2022-12-29T12:14:16;15.25;;;2.88;;
24157;SDS011;12316;50.904;4.200;2022-12-29T12:22:03;12.63;;;2.20;;
24157;SDS011;12316;50.904;4.200;2022-12-29T12:24:54;10.30;;;2.03;;
24157;SDS011;12316;50.904;4.200;2022-12-29T12:27:36;13.07;;;2.28;;
24157;SDS011;12316;50.904;4.200;2022-12-29T12:35:43;11.30;;;2.33;;
24157;SDS011;12316;50.904;4.200;2022-12-29T12:44:07;11.85;;;2.53;;
24157;SDS011;12316;50.904;4.200;2022-12-29T12:52:06;12.00;;;2.17;;
24157;SDS011;12316;50.904;4.200;2022-12-29T13:00:26;14.15;;;2.58;;
24157;SDS011;12316;50.904;4.200;2022-12-29T13:08:35;10.88;;;2.20;;
24157;SDS011;12316;50.904;4.200;2022-12-29T13:17:00;9.40;;;2.17;;
24157;SDS011;12316;50.904;4.200;2022-12-29T13:19:40;7.55;;;1.70;;
24157;SDS011;12316;50.904;4.200;2022-12-29T13:28:04;10.52;;;1.80;;
24157;SDS011;12316;50.904;4.200;2022-12-29T13:34:47;9.10;;;1.80;;
24157;SDS011;12316;50.904;4.200;2022-12-29T13:37:12;8.40;;;1.80;;
24157;SDS011;12316;50.904;4.200;2022-12-29T13:39:51;9.65;;;1.90;;
24157;SDS011;12316;50.904;4.200;2022-12-29T13:42:20;10.55;;;1.88;;
24157;SDS011;12316;50.904;4.200;2022-12-29T13:45:01;8.50;;;1.90;;
24157;SDS011;12316;50.904;4.200;2022-12-29T13:50:12;13.38;;;2.25;;
24157;SDS011;12316;50.904;4.200;2022-12-29T13:52:45;12.13;;;2.25;;
24157;SDS011;12316;50.904;4.200;2022-12-29T14:08:41;9.85;;;1.80;;
24157;SDS011;12316;50.904;4.200;2022-12-29T14:11:08;7.32;;;1.45;;
24157;SDS011;12316;50.904;4.200;2022-12-29T14:13:38;8.63;;;1.40;;
24157;SDS011;12316;50.904;4.200;2022-12-29T14:16:07;6.50;;;1.00;;
24157;SDS011;12316;50.904;4.200;2022-12-29T14:18:50;4.47;;;1.02;;
24157;SDS011;12316;50.904;4.200;2022-12-29T14:26:32;6.85;;;1.00;;
24157;SDS011;12316;50.904;4.200;2022-12-29T14:29:16;4.05;;;0.80;;
24157;SDS011;12316;50.904;4.200;2022-12-29T14:37:25;4.32;;;1.08;;
24157;SDS011;12316;50.904;4.200;2022-12-29T14:42:42;5.78;;;1.55;;
24157;SDS011;12316;50.904;4.200;2022-12-29T14:47:44;8.32;;;1.55;;
24157;SDS011;12316;50.904;4.200;2022-12-29T14:53:40;6.57;;;1.20;;
24157;SDS011;12316;50.904;4.200;2022-12-29T15:00:57;7.20;;;1.20;;
24157;SDS011;12316;50.904;4.200;2022-12-29T15:03:25;7.32;;;1.30;;
24157;SDS011;12316;50.904;4.200;2022-12-29T15:05:58;10.07;;;1.92;;
24157;SDS011;12316;50.904;4.200;2022-12-29T15:08:31;10.48;;;1.70;;
24157;SDS011;12316;50.904;4.200;2022-12-29T15:11:04;9.98;;;2.20;;
24157;SDS011;12316;50.904;4.200;2022-12-29T15:13:37;11.23;;;1.83;;
24157;SDS011;12316;50.904;4.200;2022-12-29T15:16:20;9.38;;;1.83;;
24157;SDS011;12316;50.904;4.200;2022-12-29T15:18:57;9.38;;;1.65;;
24157;SDS011;12316;50.904;4.200;2022-12-29T15:21:27;7.30;;;1.52;;
24157;SDS011;12316;50.904;4.200;2022-12-29T15:23:55;9.70;;;2.30;;
24157;SDS011;12316;50.904;4.200;2022-12-29T15:26:21;9.65;;;1.80;;
24157;SDS011;12316;50.904;4.200;2022-12-29T15:28:51;10.05;;;1.52;;
24157;SDS011;12316;50.904;4.200;2022-12-29T15:31:23;10.13;;;1.80;;
24157;SDS011;12316;50.904;4.200;2022-12-29T15:33:50;6.10;;;1.50;;
24157;SDS011;12316;50.904;4.200;2022-12-29T15:36:20;12.40;;;1.80;;
24157;SDS011;12316;50.904;4.200;2022-12-29T15:38:51;9.00;;;1.75;;
24157;SDS011;12316;50.904;4.200;2022-12-29T15:41:24;11.75;;;2.10;;
24157;SDS011;12316;50.904;4.200;2022-12-29T15:44:00;10.35;;;1.90;;
24157;SDS011;12316;50.904;4.200;2022-12-29T15:46:48;10.40;;;2.00;;
24157;SDS011;12316;50.904;4.200;2022-12-29T15:49:14;11.10;;;1.92;;
24157;SDS011;12316;50.904;4.200;2022-12-29T15:51:41;10.18;;;2.10;;
24157;SDS011;12316;50.904;4.200;2022-12-29T15:54:14;9.75;;;1.83;;
24157;SDS011;12316;50.904;4.200;2022-12-29T15:56:42;11.63;;;1.60;;
24157;SDS011;12316;50.904;4.200;2022-12-29T16:01:53;8.00;;;1.90;;
24157;SDS011;12316;50.904;4.200;2022-12-29T16:04:23;12.15;;;2.00;;
24157;SDS011;12316;50.904;4.200;2022-12-29T16:07:02;9.93;;;1.55;;
24157;SDS011;12316;50.904;4.200;2022-12-29T16:09:31;11.73;;;1.90;;
24157;SDS011;12316;50.904;4.200;2022-12-29T16:11:58;10.45;;;2.15;;
24157;SDS011;12316;50.904;4.200;2022-12-29T16:14:42;12.00;;;2.10;;
24157;SDS011;12316;50.904;4.200;2022-12-29T16:17:12;11.95;;;1.90;;
24157;SDS011;12316;50.904;4.200;2022-12-29T16:19:41;17.25;;;2.53;;
24157;SDS011;12316;50.904;4.200;2022-12-29T16:25:15;12.32;;;2.40;;
24157;SDS011;12316;50.904;4.200;2022-12-29T16:27:48;12.02;;;2.35;;
24157;SDS011;12316;50.904;4.200;2022-12-29T16:32:50;9.43;;;2.47;;
24157;SDS011;12316;50.904;4.200;2022-12-29T16:35:21;15.20;;;2.97;;
24157;SDS011;12316;50.904;4.200;2022-12-29T16:38:37;12.35;;;3.00;;
24157;SDS011;12316;50.904;4.200;2022-12-29T16:43:34;13.82;;;2.67;;
24157;SDS011;12316;50.904;4.200;2022-12-29T16:46:21;15.60;;;3.45;;
24157;SDS011;12316;50.904;4.200;2022-12-29T16:48:54;15.98;;;3.20;;
24157;SDS011;12316;50.904;4.200;2022-12-29T16:51:34;12.82;;;2.78;;
24157;SDS011;12316;50.904;4.200;2022-12-29T16:54:01;12.35;;;3.17;;
24157;SDS011;12316;50.904;4.200;2022-12-29T16:56:29;17.13;;;3.63;;
24157;SDS011;12316;50.904;4.200;2022-12-29T16:59:03;15.60;;;3.20;;
24157;SDS011;12316;50.904;4.200;2022-12-29T17:01:34;22.10;;;4.00;;
24157;SDS011;12316;50.904;4.200;2022-12-29T17:04:04;18.30;;;3.42;;
24157;SDS011;12316;50.904;4.200;2022-12-29T17:06:32;16.05;;;3.33;;
24157;SDS011;12316;50.904;4.200;2022-12-29T17:08:58;18.05;;;3.70;;
24157;SDS011;12316;50.904;4.200;2022-12-29T17:14:15;19.70;;;3.70;;
24157;SDS011;12316;50.904;4.200;2022-12-29T17:16:56;15.45;;;3.17;;
24157;SDS011;12316;50.904;4.200;2022-12-29T17:19:35;19.05;;;3.55;;
24157;SDS011;12316;50.904;4.200;2022-12-29T17:22:03;19.40;;;3.47;;
24157;SDS011;12316;50.904;4.200;2022-12-29T17:24:51;16.23;;;3.38;;
24157;SDS011;12316;50.904;4.200;2022-12-29T17:27:28;19.65;;;3.30;;
24157;SDS011;12316;50.904;4.200;2022-12-29T17:30:16;14.10;;;3.15;;
24157;SDS011;12316;50.904;4.200;2022-12-29T17:32:51;14.50;;;3.20;;
24157;SDS011;12316;50.904;4.200;2022-12-29T17:35:20;17.60;;;3.45;;
24157;SDS011;12316;50.904;4.200;2022-12-29T17:37:47;23.13;;;3.90;;
24157;SDS011;12316;50.904;4.200;2022-12-29T17:40:16;13.48;;;3.03;;
24157;SDS011;12316;50.904;4.200;2022-12-29T17:42:44;22.85;;;3.70;;
24157;SDS011;12316;50.904;4.200;2022-12-29T17:45:12;19.30;;;3.75;;
24157;SDS011;12316;50.904;4.200;2022-12-29T17:47:40;21.85;;;4.00;;
24157;SDS011;12316;50.904;4.200;2022-12-29T17:50:10;19.23;;;3.50;;